createdAt,value
2022-10-13T00:01:24.606Z,2.59
2022-10-13T00:03:52.545Z,2.59
2022-10-13T00:06:24.327Z,2.51
2022-10-13T00:08:52.479Z,2.56
2022-10-13T00:11:26.793Z,2.57
2022-10-13T00:14:00.132Z,2.49
2022-10-13T00:16:29.504Z,2.59
2022-10-13T00:18:58.671Z,2.56
2022-10-13T00:21:28.178Z,2.57
2022-10-13T00:24:03.197Z,2.57
2022-10-13T00:26:31.117Z,2.54
2022-10-13T00:28:59.176Z,2.53
2022-10-13T00:31:32.241Z,2.50
2022-10-13T00:34:01.703Z,2.50
2022-10-13T00:36:30.611Z,2.52
2022-10-13T00:38:59.975Z,2.53
2022-10-13T00:41:28.106Z,2.48
2022-10-13T00:44:04.358Z,2.54
2022-10-13T00:46:34.783Z,2.42
2022-10-13T00:49:10.468Z,2.58
2022-10-13T00:51:45.781Z,2.58
2022-10-13T00:54:24.779Z,2.58
2022-10-13T00:56:55.650Z,2.60
2022-10-13T00:59:29.686Z,2.59
2022-10-13T01:02:00.425Z,2.59
2022-10-13T01:04:41.292Z,2.60
2022-10-13T01:07:10.125Z,2.61
2022-10-13T01:09:38.627Z,2.59
2022-10-13T01:12:54.868Z,2.60
2022-10-13T01:15:33.603Z,2.62
2022-10-13T01:18:14.276Z,2.62
2022-10-13T01:20:57.549Z,2.63
2022-10-13T01:23:35.268Z,2.64
2022-10-13T01:26:03.138Z,2.66
2022-10-13T01:29:01.315Z,2.66
2022-10-13T01:31:40.579Z,2.67
2022-10-13T01:34:16.296Z,2.68
2022-10-13T01:37:10.828Z,2.69
2022-10-13T01:40:00.198Z,2.69
2022-10-13T01:42:39.789Z,2.70
2022-10-13T01:45:14.205Z,2.70
2022-10-13T01:47:44.094Z,2.71
2022-10-13T01:50:12.918Z,2.72
2022-10-13T01:52:44.415Z,2.75
2022-10-13T01:55:14.081Z,2.79
2022-10-13T01:57:44.850Z,2.82
2022-10-13T02:00:18.482Z,2.87
2022-10-13T02:02:52.554Z,2.89
2022-10-13T02:05:26.799Z,2.91
2022-10-13T02:11:02.646Z,2.88
2022-10-13T02:13:33.861Z,2.96
2022-10-13T02:16:02.632Z,2.95
2022-10-13T02:18:34.384Z,2.90
2022-10-13T02:21:04.382Z,3.01
2022-10-13T02:23:32.646Z,3.09
2022-10-13T02:26:05.303Z,3.17
2022-10-13T02:28:33.457Z,3.24
2022-10-13T02:31:01.414Z,3.29
2022-10-13T02:33:30.545Z,3.32
2022-10-13T02:35:58.586Z,3.28
2022-10-13T02:38:26.561Z,3.40
2022-10-13T02:40:55.957Z,3.42
2022-10-13T02:43:23.907Z,3.44
2022-10-13T02:45:52.059Z,3.42
2022-10-13T02:48:20.196Z,3.51
2022-10-13T02:50:48.416Z,3.53
2022-10-13T02:53:16.426Z,3.54
2022-10-13T02:55:46.148Z,3.56
2022-10-13T02:58:13.860Z,3.57
2022-10-13T03:00:42.755Z,3.61
2022-10-13T03:03:14.193Z,3.64
2022-10-13T03:05:42.171Z,3.65
2022-10-13T03:08:10.190Z,3.71
2022-10-13T03:10:38.629Z,3.67
2022-10-13T03:13:06.592Z,3.77
2022-10-13T03:15:34.544Z,3.82
2022-10-13T03:18:03.556Z,3.87
2022-10-13T03:20:31.650Z,3.88
2022-10-13T03:22:59.560Z,3.93
2022-10-13T03:25:28.661Z,3.97
2022-10-13T03:27:57.198Z,3.99
2022-10-13T03:30:25.516Z,4.00
2022-10-13T03:32:54.093Z,4.02
2022-10-13T03:35:22.182Z,3.94
2022-10-13T03:38:05.391Z,4.03
2022-10-13T03:40:35.122Z,4.06
2022-10-13T03:43:02.788Z,4.09
2022-10-13T03:45:31.913Z,4.11
2022-10-13T03:48:01.295Z,4.09
2022-10-13T03:50:29.275Z,4.19
2022-10-13T03:52:57.217Z,4.18
2022-10-13T03:55:27.189Z,4.27
2022-10-13T03:57:55.190Z,4.29
2022-10-13T04:00:24.129Z,4.33
2022-10-13T04:02:53.912Z,4.35
2022-10-13T04:05:21.850Z,4.38
2022-10-13T04:07:49.775Z,4.39
2022-10-13T04:10:18.155Z,4.44
2022-10-13T04:12:46.104Z,4.48
2022-10-13T04:15:14.105Z,4.55
2022-10-13T04:17:43.185Z,4.53
2022-10-13T04:20:11.796Z,4.62
2022-10-13T04:22:40.103Z,4.69
2022-10-13T04:25:09.643Z,4.74
2022-10-13T04:27:39.952Z,4.79
2022-10-13T04:30:09.474Z,4.84
2022-10-13T04:32:41.094Z,4.86
2022-10-13T04:35:09.227Z,4.92
2022-10-13T04:37:40.495Z,4.93
2022-10-13T04:40:11.503Z,4.93
2022-10-13T04:42:39.570Z,4.97
2022-10-13T04:45:08.247Z,4.99
2022-10-13T04:47:54.941Z,5.02
2022-10-13T04:50:23.417Z,5.04
2022-10-13T04:52:51.431Z,5.08
2022-10-13T04:55:20.410Z,5.10
2022-10-13T04:57:49.600Z,5.10
2022-10-13T05:00:17.978Z,5.10
2022-10-13T05:02:46.250Z,5.12
2022-10-13T05:05:15.347Z,5.14
2022-10-13T05:07:43.394Z,5.18
2022-10-13T05:10:11.487Z,5.23
2022-10-13T05:12:39.467Z,5.27
2022-10-13T05:15:07.985Z,5.33
2022-10-13T05:17:36.081Z,5.33
2022-10-13T05:20:04.967Z,5.39
2022-10-13T05:22:33.059Z,5.45
2022-10-13T05:25:02.266Z,5.49
2022-10-13T05:27:31.344Z,5.53
2022-10-13T05:29:59.362Z,5.56
2022-10-13T05:32:28.322Z,5.56
2022-10-13T05:34:56.316Z,5.49
2022-10-13T05:37:24.327Z,5.63
2022-10-13T05:39:53.151Z,5.63
2022-10-13T05:42:21.321Z,5.76
2022-10-13T05:44:49.601Z,5.80
2022-10-13T05:47:17.774Z,5.83
2022-10-13T05:49:45.834Z,5.80
2022-10-13T05:52:14.065Z,5.76
2022-10-13T05:54:49.332Z,5.81
2022-10-13T05:57:23.438Z,5.84
2022-10-13T06:00:14.529Z,5.84
2022-10-13T06:03:08.132Z,5.84
2022-10-13T06:05:37.595Z,5.87
2022-10-13T06:08:05.828Z,5.87
2022-10-13T06:10:33.845Z,5.81
2022-10-13T06:13:01.910Z,5.82
2022-10-13T06:15:29.925Z,5.78
2022-10-13T06:17:58.029Z,5.67
2022-10-13T06:20:30.131Z,5.68
2022-10-13T06:22:58.340Z,5.73
2022-10-13T06:25:26.455Z,5.51
2022-10-13T06:27:54.556Z,5.69
2022-10-13T06:30:22.621Z,5.68
2022-10-13T06:32:50.569Z,5.61
2022-10-13T06:35:20.988Z,5.55
2022-10-13T06:37:49.348Z,5.53
2022-10-13T06:40:18.019Z,5.46
2022-10-13T06:42:51.734Z,5.48
2022-10-13T06:45:22.461Z,5.53
2022-10-13T06:47:50.481Z,5.55
2022-10-13T06:50:20.341Z,5.61
2022-10-13T06:52:47.982Z,5.64
2022-10-13T06:55:16.121Z,5.57
2022-10-13T06:57:44.699Z,5.49
2022-10-13T07:00:13.078Z,5.45
2022-10-13T07:02:40.988Z,5.41
2022-10-13T07:05:10.274Z,5.13
2022-10-13T07:07:38.505Z,5.31
2022-10-13T07:10:06.848Z,5.37
2022-10-13T07:12:36.191Z,5.41
2022-10-13T07:15:04.430Z,5.38
2022-10-13T07:17:32.448Z,5.49
2022-10-13T07:20:05.036Z,5.52
2022-10-13T07:22:35.396Z,5.64
2022-10-13T07:25:06.007Z,5.70
2022-10-13T07:27:34.130Z,5.78
2022-10-13T07:30:02.181Z,5.83
2022-10-13T07:32:32.854Z,5.84
2022-10-13T07:35:00.829Z,5.85
2022-10-13T07:37:28.934Z,5.83
2022-10-13T07:39:56.986Z,5.81
2022-10-13T07:42:24.980Z,5.79
2022-10-13T07:44:53.000Z,5.80
2022-10-13T07:47:22.895Z,5.75
2022-10-13T07:49:51.232Z,5.84
2022-10-13T07:52:38.006Z,5.90
2022-10-13T07:55:06.504Z,5.93
2022-10-13T07:57:34.575Z,5.93
2022-10-13T08:00:02.837Z,5.93
2022-10-13T08:02:31.839Z,5.90
2022-10-13T08:04:59.773Z,5.86
2022-10-13T08:07:29.632Z,5.89
2022-10-13T08:09:59.602Z,5.88
2022-10-13T08:12:27.548Z,5.89
2022-10-13T08:14:57.724Z,5.91
2022-10-13T08:17:27.649Z,5.93
2022-10-13T08:19:56.934Z,5.93
2022-10-13T08:22:28.220Z,5.92
2022-10-13T08:24:56.662Z,5.91
2022-10-13T08:27:32.790Z,5.85
2022-10-13T08:30:12.830Z,5.87
2022-10-13T08:32:41.735Z,5.85
2022-10-13T08:37:56.503Z,5.51
2022-10-13T08:40:24.738Z,5.70
2022-10-13T08:42:55.566Z,5.68
2022-10-13T08:45:41.211Z,5.57
2022-10-13T08:48:19.155Z,5.43
2022-10-13T08:50:51.652Z,5.46
2022-10-13T08:53:29.720Z,5.50
2022-10-13T08:56:06.505Z,5.52
2022-10-13T08:58:36.911Z,5.58
2022-10-13T09:01:09.703Z,5.60
2022-10-13T09:04:00.381Z,5.62
2022-10-13T09:06:42.103Z,5.57
2022-10-13T09:09:13.249Z,5.61
2022-10-13T09:11:44.060Z,5.63
2022-10-13T09:14:20.965Z,5.68
2022-10-13T09:16:50.522Z,5.70
2022-10-13T09:19:18.408Z,5.72
2022-10-13T09:21:46.461Z,5.71
2022-10-13T09:24:22.179Z,5.73
2022-10-13T09:27:02.987Z,5.74
2022-10-13T09:29:31.974Z,5.71
2022-10-13T09:36:15.198Z,5.65
2022-10-13T09:39:05.646Z,5.67
2022-10-13T09:41:35.300Z,5.58
2022-10-13T09:44:18.562Z,5.62
2022-10-13T09:46:55.422Z,5.60
2022-10-13T09:49:27.816Z,5.60
2022-10-13T09:52:13.456Z,5.61
2022-10-13T09:54:45.635Z,5.59
2022-10-13T09:57:20.066Z,5.56
2022-10-13T10:00:16.647Z,5.32
2022-10-13T10:02:50.079Z,5.46
2022-10-13T10:05:28.454Z,5.39
2022-10-13T10:08:05.351Z,5.32
2022-10-13T10:10:37.016Z,5.29
2022-10-13T10:13:05.075Z,5.30
2022-10-13T10:16:02.560Z,5.24
2022-10-13T10:18:58.930Z,5.24
2022-10-13T10:21:45.620Z,5.20
2022-10-13T10:24:34.950Z,5.17
2022-10-13T10:27:12.429Z,5.17
2022-10-13T10:29:47.353Z,5.17
2022-10-13T10:32:46.141Z,5.17
2022-10-13T10:35:21.775Z,5.17
2022-10-13T10:37:55.899Z,5.16
2022-10-13T10:40:23.940Z,5.16
2022-10-13T10:43:08.183Z,5.14
2022-10-13T10:45:39.943Z,5.14
2022-10-13T10:48:30.519Z,5.12
2022-10-13T10:50:58.744Z,5.08
2022-10-13T10:53:41.050Z,5.08
2022-10-13T10:56:15.086Z,5.05
2022-10-13T10:59:08.223Z,5.04
2022-10-13T11:01:57.465Z,5.03
2022-10-13T11:04:47.253Z,5.00
2022-10-13T11:07:44.280Z,4.97
2022-10-13T11:10:15.825Z,4.98
2022-10-13T11:12:52.613Z,4.95
2022-10-13T11:15:58.179Z,4.89
2022-10-13T11:18:59.944Z,4.92
2022-10-13T11:21:48.071Z,4.91
2022-10-13T11:24:34.588Z,4.89
2022-10-13T11:27:19.235Z,4.87
2022-10-13T11:29:47.504Z,4.85
2022-10-13T11:32:42.132Z,4.83
2022-10-13T11:35:12.927Z,4.82
2022-10-13T11:38:09.904Z,4.80
2022-10-13T11:41:00.239Z,4.79
2022-10-13T11:43:56.445Z,4.74
2022-10-13T11:46:27.624Z,4.71
2022-10-13T11:48:58.472Z,4.67
2022-10-13T11:51:38.708Z,4.60
2022-10-13T11:54:24.925Z,4.50
2022-10-13T11:56:56.072Z,4.42
2022-10-13T11:59:34.491Z,4.35
2022-10-13T12:02:11.368Z,4.29
2022-10-13T12:04:45.673Z,4.19
2022-10-13T12:07:16.820Z,4.03
2022-10-13T12:09:50.459Z,4.06
2022-10-13T12:12:21.169Z,3.98
2022-10-13T12:14:55.334Z,3.92
2022-10-13T12:17:36.416Z,3.84
2022-10-13T12:20:26.089Z,3.73
2022-10-13T12:22:54.846Z,3.73
2022-10-13T12:25:30.382Z,3.65
2022-10-13T12:28:03.968Z,3.57
2022-10-13T12:30:38.277Z,3.53
2022-10-13T12:33:23.708Z,3.31
2022-10-13T12:35:51.864Z,3.44
2022-10-13T12:38:21.897Z,3.40
2022-10-13T12:40:52.699Z,3.35
2022-10-13T12:43:27.025Z,3.33
2022-10-13T12:45:55.447Z,3.29
2022-10-13T12:48:38.888Z,3.22
2022-10-13T12:51:24.327Z,2.94
2022-10-13T12:53:52.465Z,3.12
2022-10-13T12:56:30.204Z,3.14
2022-10-13T12:59:00.175Z,3.11
2022-10-13T13:01:37.057Z,3.06
2022-10-13T13:04:19.032Z,2.99
2022-10-13T13:07:01.928Z,2.83
2022-10-13T13:09:31.491Z,2.80
2022-10-13T13:12:19.219Z,2.69
2022-10-13T13:14:50.242Z,2.70
2022-10-13T13:17:33.017Z,2.66
2022-10-13T13:20:27.790Z,2.59
2022-10-13T13:22:56.790Z,2.59
2022-10-13T13:25:25.364Z,2.56
2022-10-13T13:27:54.962Z,2.54
2022-10-13T13:30:25.395Z,2.48
2022-10-13T13:32:53.498Z,2.48
2022-10-13T13:35:21.874Z,2.44
2022-10-13T13:37:52.909Z,2.40
2022-10-13T13:40:26.942Z,2.34
2022-10-13T13:42:55.516Z,2.25
2022-10-13T13:45:27.418Z,2.17
2022-10-13T13:48:00.326Z,2.09
2022-10-13T13:50:34.553Z,2.04
2022-10-13T13:53:02.673Z,1.96
2022-10-13T13:55:31.456Z,1.97
2022-10-13T13:57:59.554Z,1.85
2022-10-13T14:00:27.651Z,1.84
2022-10-13T14:02:58.326Z,1.77
2022-10-13T14:05:26.351Z,1.84
2022-10-13T14:07:57.554Z,1.85
2022-10-13T14:10:27.453Z,1.84
2022-10-13T14:12:55.514Z,1.81
2022-10-13T14:15:27.178Z,1.77
2022-10-13T14:17:58.188Z,1.74
2022-10-13T14:20:26.268Z,1.75
2022-10-13T14:22:54.374Z,1.74
2022-10-13T14:25:22.460Z,1.77
2022-10-13T14:27:50.631Z,1.79
2022-10-13T14:30:18.786Z,1.82
2022-10-13T14:32:47.633Z,1.83
2022-10-13T14:35:15.661Z,1.81
2022-10-13T14:37:43.686Z,1.82
2022-10-13T14:40:11.928Z,1.79
2022-10-13T14:42:40.245Z,1.79
2022-10-13T14:45:09.023Z,1.82
2022-10-13T14:47:37.873Z,1.82
2022-10-13T14:50:06.395Z,1.82
2022-10-13T14:52:34.672Z,1.72
2022-10-13T14:55:06.057Z,1.81
2022-10-13T14:57:34.260Z,1.82
2022-10-13T15:00:02.479Z,1.81
2022-10-13T15:02:34.232Z,1.82
2022-10-13T15:05:02.044Z,1.83
2022-10-13T15:07:31.737Z,1.79
2022-10-13T15:10:07.876Z,1.82
2022-10-13T15:12:36.030Z,1.79
2022-10-13T15:15:07.946Z,1.74
2022-10-13T15:17:37.490Z,1.76
2022-10-13T15:20:07.133Z,1.77
2022-10-13T15:22:36.165Z,1.77
2022-10-13T15:25:08.579Z,1.71
2022-10-13T15:27:41.632Z,1.80
2022-10-13T15:30:11.422Z,1.79
2022-10-13T15:32:39.570Z,1.81
2022-10-13T15:35:08.096Z,1.82
2022-10-13T15:37:36.422Z,1.80
2022-10-13T15:40:04.678Z,1.75
2022-10-13T15:42:32.669Z,1.76
2022-10-13T15:45:09.954Z,1.74
2022-10-13T15:47:38.810Z,1.72
2022-10-13T15:50:07.404Z,1.72
2022-10-13T15:52:42.042Z,1.70
2022-10-13T15:55:14.834Z,1.67
2022-10-13T15:57:43.054Z,1.67
2022-10-13T16:00:13.548Z,1.67
2022-10-13T16:02:42.893Z,1.72
2022-10-13T16:05:13.786Z,1.75
2022-10-13T16:07:42.563Z,1.74
2022-10-13T16:10:13.401Z,1.76
2022-10-13T16:12:46.837Z,1.71
2022-10-13T16:15:18.797Z,1.74
2022-10-13T16:17:46.904Z,1.74
2022-10-13T16:20:15.158Z,1.71
2022-10-13T16:22:44.040Z,1.72
2022-10-13T16:25:12.090Z,1.72
2022-10-13T16:27:44.053Z,1.72
2022-10-13T16:30:16.017Z,1.69
2022-10-13T16:32:43.972Z,1.64
2022-10-13T16:35:12.352Z,1.74
2022-10-13T16:37:42.303Z,1.72
2022-10-13T16:40:10.841Z,1.81
2022-10-13T16:42:38.999Z,1.77
2022-10-13T16:45:07.820Z,1.84
2022-10-13T16:47:35.811Z,1.87
2022-10-13T16:50:10.054Z,1.84
2022-10-13T16:52:39.594Z,1.85
2022-10-13T16:55:08.249Z,1.84
2022-10-13T16:57:36.339Z,1.84
2022-10-13T17:00:06.749Z,1.84
2022-10-13T17:02:36.374Z,1.77
2022-10-13T17:05:04.528Z,1.83
2022-10-13T17:07:35.122Z,1.84
2022-10-13T17:11:03.590Z,1.83
2022-10-13T17:13:35.196Z,1.82
2022-10-13T17:16:04.390Z,1.75
2022-10-13T17:18:32.410Z,1.80
2022-10-13T17:21:02.986Z,1.52
2022-10-13T17:23:31.622Z,1.78
2022-10-13T17:26:06.757Z,1.79
2022-10-13T17:28:36.970Z,1.76
2022-10-13T17:31:07.646Z,1.83
2022-10-13T17:33:39.940Z,1.82
2022-10-13T17:36:13.224Z,1.84
2022-10-13T17:38:41.768Z,1.64
2022-10-13T17:41:11.941Z,1.86
2022-10-13T17:43:41.831Z,1.62
2022-10-13T17:46:38.227Z,1.86
2022-10-13T17:49:10.110Z,1.85
2022-10-13T17:51:39.152Z,1.84
2022-10-13T17:54:12.958Z,1.84
2022-10-13T17:56:43.815Z,1.83
2022-10-13T17:59:12.284Z,1.84
2022-10-13T18:01:42.623Z,1.84
2022-10-13T18:04:13.921Z,1.84
2022-10-13T18:06:47.296Z,1.83
2022-10-13T18:09:24.801Z,1.80
2022-10-13T18:11:56.251Z,1.83
2022-10-13T18:14:25.435Z,1.84
2022-10-13T18:16:54.001Z,1.79
2022-10-13T18:19:22.556Z,1.83
2022-10-13T18:21:50.967Z,1.84
2022-10-13T18:24:19.649Z,1.83
2022-10-13T18:26:50.015Z,1.82
2022-10-13T18:29:18.123Z,1.83
2022-10-13T18:31:46.256Z,1.80
2022-10-13T18:34:18.266Z,1.82
2022-10-13T18:36:52.903Z,1.85
2022-10-13T18:39:24.288Z,1.85
2022-10-13T18:41:54.104Z,1.82
2022-10-13T18:44:23.741Z,1.81
2022-10-13T18:46:52.266Z,1.78
2022-10-13T18:49:31.568Z,1.73
2022-10-13T18:52:02.180Z,1.68
2022-10-13T18:54:30.893Z,1.59
2022-10-13T18:57:03.301Z,1.67
2022-10-13T18:59:31.495Z,1.63
2022-10-13T19:02:01.555Z,1.65
2022-10-13T19:04:29.797Z,1.67
2022-10-13T19:06:57.790Z,1.65
2022-10-13T19:09:27.129Z,1.66
2022-10-13T19:11:58.032Z,1.61
2022-10-13T19:14:26.996Z,1.57
2022-10-13T19:16:59.404Z,1.57
2022-10-13T19:19:31.952Z,1.53
2022-10-13T19:21:59.900Z,1.50
2022-10-13T19:24:28.025Z,1.45
2022-10-13T19:26:56.898Z,1.37
2022-10-13T19:29:24.894Z,1.30
2022-10-13T19:31:52.997Z,1.36
2022-10-13T19:34:21.243Z,1.34
2022-10-13T19:36:49.796Z,1.30
2022-10-13T19:39:27.631Z,1.28
2022-10-13T19:41:57.467Z,1.27
2022-10-13T19:44:25.992Z,1.24
2022-10-13T19:46:57.040Z,1.19
2022-10-13T19:49:28.137Z,1.14
2022-10-13T19:51:56.892Z,0.99
2022-10-13T19:54:30.186Z,0.98
2022-10-13T19:57:01.202Z,0.90
2022-10-13T19:59:29.573Z,0.98
2022-10-13T20:01:58.324Z,0.97
2022-10-13T20:04:26.972Z,0.95
2022-10-13T20:06:55.199Z,0.92
2022-10-13T20:09:26.109Z,0.80
2022-10-13T20:11:54.260Z,0.85
2022-10-13T20:14:22.750Z,0.76
2022-10-13T20:16:52.577Z,0.77
2022-10-13T20:19:20.762Z,0.74
2022-10-13T20:21:52.097Z,0.64
2022-10-13T20:24:25.390Z,0.71
2022-10-13T20:26:53.551Z,0.64
2022-10-13T20:29:21.607Z,0.48
2022-10-13T20:31:49.778Z,0.63
2022-10-13T20:34:17.905Z,0.59
2022-10-13T20:36:45.872Z,0.43
2022-10-13T20:39:14.805Z,0.46
2022-10-13T20:41:42.916Z,0.46
2022-10-13T20:44:11.674Z,0.41
2022-10-13T20:46:40.102Z,0.35
2022-10-13T20:49:12.571Z,0.35
2022-10-13T20:51:42.519Z,0.34
2022-10-13T20:54:12.271Z,0.35
2022-10-13T20:56:39.936Z,0.35
2022-10-13T20:59:11.146Z,0.33
2022-10-13T21:01:42.145Z,0.34
2022-10-13T21:04:10.179Z,0.35
2022-10-13T21:06:38.813Z,0.36
2022-10-13T21:09:08.192Z,0.37
2022-10-13T21:11:36.769Z,0.39
2022-10-13T21:14:07.447Z,0.41
2022-10-13T21:16:36.515Z,0.41
2022-10-13T21:19:05.507Z,0.44
2022-10-13T21:21:36.414Z,0.41
2022-10-13T21:24:07.027Z,0.45
2022-10-13T21:26:36.517Z,0.46
2022-10-13T21:29:04.934Z,0.41
2022-10-13T21:31:33.048Z,0.45
2022-10-13T21:34:01.720Z,0.49
2022-10-13T21:36:32.073Z,0.49
2022-10-13T21:39:05.365Z,0.51
2022-10-13T21:41:33.478Z,0.52
2022-10-13T21:44:01.491Z,0.51
2022-10-13T21:46:32.880Z,0.53
2022-10-13T21:49:04.421Z,0.52
2022-10-13T21:51:36.558Z,0.53
2022-10-13T21:54:10.375Z,0.54
2022-10-13T21:56:40.157Z,0.55
2022-10-13T21:59:12.114Z,0.55
2022-10-13T22:01:40.368Z,0.59
2022-10-13T22:04:08.555Z,0.59
2022-10-13T22:06:36.779Z,0.60
2022-10-13T22:09:06.391Z,0.63
2022-10-13T22:11:35.124Z,0.66
2022-10-13T22:14:03.202Z,0.60
2022-10-13T22:16:34.992Z,0.65
2022-10-13T22:19:02.938Z,0.65
2022-10-13T22:21:34.738Z,0.66
2022-10-13T22:24:06.089Z,0.67
2022-10-13T22:26:37.479Z,0.66
2022-10-13T22:29:07.139Z,0.66
2022-10-13T22:31:35.462Z,0.69
2022-10-13T22:34:03.964Z,0.40
2022-10-13T22:36:32.427Z,0.60
2022-10-13T22:39:03.326Z,0.58
2022-10-13T22:41:33.553Z,0.56
2022-10-13T22:44:02.772Z,0.52
2022-10-13T22:46:35.267Z,0.52
2022-10-13T22:49:04.257Z,0.52
2022-10-13T22:51:34.650Z,0.53
2022-10-13T22:54:03.576Z,0.52
2022-10-13T22:56:34.012Z,0.51
2022-10-13T22:59:07.637Z,0.52
2022-10-13T23:01:36.387Z,0.49
2022-10-13T23:04:06.065Z,0.54
2022-10-13T23:06:36.880Z,0.55
2022-10-13T23:09:07.763Z,0.55
2022-10-13T23:12:00.630Z,0.52
2022-10-13T23:14:28.758Z,0.51
2022-10-13T23:16:56.770Z,0.51
2022-10-13T23:19:26.250Z,0.48
2022-10-13T23:21:54.105Z,0.47
2022-10-13T23:24:22.253Z,0.46
2022-10-13T23:26:50.389Z,0.48
2022-10-13T23:29:18.324Z,0.50
2022-10-13T23:31:46.340Z,0.48
2022-10-13T23:34:14.467Z,0.46
2022-10-13T23:36:42.439Z,0.41
2022-10-13T23:39:11.525Z,0.40
2022-10-13T23:41:40.616Z,0.39
2022-10-13T23:44:09.073Z,0.31
2022-10-13T23:46:37.204Z,0.37
2022-10-13T23:49:05.296Z,0.30
2022-10-13T23:51:33.338Z,0.28
2022-10-13T23:54:01.515Z,0.28
2022-10-13T23:56:30.802Z,0.32
2022-10-13T23:58:58.903Z,0.36
